createdAt,value
2022-10-02T00:00:20.949Z,11.35
2022-10-02T00:02:51.522Z,11.44
2022-10-02T00:05:21.835Z,11.30
2022-10-02T00:07:53.057Z,10.83
2022-10-02T00:10:24.776Z,11.15
2022-10-02T00:12:55.497Z,11.20
2022-10-02T00:15:27.033Z,10.79
2022-10-02T00:17:57.974Z,10.88
2022-10-02T00:20:31.437Z,10.69
2022-10-02T00:23:03.437Z,10.26
2022-10-02T00:25:36.992Z,10.38
2022-10-02T00:28:24.301Z,10.29
2022-10-02T00:31:08.513Z,10.22
2022-10-02T00:33:47.386Z,10.33
2022-10-02T00:36:23.765Z,10.21
2022-10-02T00:38:59.522Z,10.05
2022-10-02T00:41:59.090Z,10.09
2022-10-02T00:44:40.753Z,10.21
2022-10-02T00:47:15.528Z,10.06
2022-10-02T00:49:57.644Z,9.92
2022-10-02T00:52:35.446Z,9.75
2022-10-02T00:55:30.961Z,9.56
2022-10-02T00:58:09.790Z,9.41
2022-10-02T01:00:37.831Z,9.29
2022-10-02T01:03:11.782Z,9.14
2022-10-02T01:05:40.125Z,9.14
2022-10-02T01:08:09.044Z,8.71
2022-10-02T01:10:39.049Z,9.11
2022-10-02T01:13:08.723Z,9.35
2022-10-02T01:15:39.181Z,9.62
2022-10-02T01:18:08.106Z,9.40
2022-10-02T01:20:38.861Z,9.69
2022-10-02T01:23:20.603Z,9.73
2022-10-02T01:25:50.129Z,9.71
2022-10-02T01:28:18.646Z,9.94
2022-10-02T01:30:50.130Z,9.97
2022-10-02T01:33:18.419Z,9.93
2022-10-02T01:35:46.457Z,9.83
2022-10-02T01:38:17.402Z,9.81
2022-10-02T01:40:45.556Z,9.67
2022-10-02T01:43:17.057Z,9.74
2022-10-02T01:45:56.735Z,9.82
2022-10-02T01:48:34.768Z,9.67
2022-10-02T01:51:26.365Z,9.62
2022-10-02T01:54:01.232Z,9.59
2022-10-02T01:56:36.346Z,9.41
2022-10-02T01:59:10.276Z,9.34
2022-10-02T02:01:45.516Z,9.23
2022-10-02T02:04:22.421Z,9.04
2022-10-02T02:06:55.677Z,8.97
2022-10-02T02:09:30.065Z,8.95
2022-10-02T02:12:04.077Z,9.03
2022-10-02T02:14:36.723Z,8.96
2022-10-02T02:17:09.710Z,8.74
2022-10-02T02:19:41.213Z,8.80
2022-10-02T02:22:12.953Z,8.77
2022-10-02T02:24:43.021Z,8.71
2022-10-02T02:27:14.707Z,8.56
2022-10-02T02:29:45.520Z,8.55
2022-10-02T02:32:17.653Z,8.73
2022-10-02T02:34:49.557Z,8.52
2022-10-02T02:37:19.765Z,8.77
2022-10-02T02:39:51.081Z,8.99
2022-10-02T02:42:25.146Z,8.99
2022-10-02T02:44:58.216Z,8.92
2022-10-02T02:47:28.756Z,8.82
2022-10-02T02:50:00.494Z,8.84
2022-10-02T02:52:30.904Z,8.95
2022-10-02T02:55:03.506Z,9.16
2022-10-02T02:57:35.937Z,9.20
2022-10-02T03:00:07.136Z,9.00
2022-10-02T03:02:35.132Z,8.98
2022-10-02T03:05:03.081Z,8.81
2022-10-02T03:07:31.017Z,8.80
2022-10-02T03:10:07.553Z,8.77
2022-10-02T03:12:45.458Z,8.75
2022-10-02T03:15:40.207Z,8.65
2022-10-02T03:18:21.377Z,8.42
2022-10-02T03:20:54.386Z,8.08
2022-10-02T03:23:27.301Z,7.67
2022-10-02T03:26:00.736Z,8.05
2022-10-02T03:28:54.238Z,7.98
2022-10-02T03:31:23.350Z,7.95
2022-10-02T03:33:53.690Z,7.84
2022-10-02T03:36:24.523Z,7.85
2022-10-02T03:39:12.559Z,7.76
2022-10-02T03:41:41.421Z,7.81
2022-10-02T03:44:09.334Z,7.75
2022-10-02T03:46:39.438Z,7.81
2022-10-02T03:49:07.618Z,7.82
2022-10-02T03:51:35.503Z,7.93
2022-10-02T03:54:03.412Z,8.19
2022-10-02T03:56:36.283Z,8.53
2022-10-02T03:59:06.851Z,8.57
2022-10-02T04:01:38.753Z,8.51
2022-10-02T04:04:09.402Z,8.58
2022-10-02T04:06:43.414Z,8.69
2022-10-02T04:09:17.477Z,8.78
2022-10-02T04:11:48.386Z,8.74
2022-10-02T04:14:19.753Z,8.70
2022-10-02T04:16:53.698Z,8.83
2022-10-02T04:19:24.620Z,9.04
2022-10-02T04:21:56.794Z,9.04
2022-10-02T04:24:30.730Z,9.14
2022-10-02T04:27:03.680Z,9.39
2022-10-02T04:29:37.209Z,9.45
2022-10-02T04:32:13.282Z,9.54
2022-10-02T04:34:41.253Z,9.57
2022-10-02T04:37:21.817Z,9.68
2022-10-02T04:40:01.784Z,9.62
2022-10-02T04:42:40.824Z,9.54
2022-10-02T04:45:20.250Z,9.68
2022-10-02T04:48:06.497Z,9.10
2022-10-02T04:50:44.882Z,9.77
2022-10-02T04:53:26.519Z,9.87
2022-10-02T04:56:09.409Z,9.72
2022-10-02T04:58:54.553Z,9.64
2022-10-02T05:01:30.921Z,9.79
2022-10-02T05:04:19.153Z,9.91
2022-10-02T05:06:59.526Z,9.68
2022-10-02T05:09:31.235Z,9.91
2022-10-02T05:12:23.963Z,9.76
2022-10-02T05:15:04.922Z,9.44
2022-10-02T05:17:57.432Z,9.29
2022-10-02T05:21:03.927Z,9.22
2022-10-02T05:23:49.973Z,9.30
2022-10-02T05:26:37.790Z,9.38
2022-10-02T05:29:19.078Z,9.45
2022-10-02T05:31:59.998Z,9.83
2022-10-02T05:34:40.622Z,10.04
2022-10-02T05:37:22.830Z,9.72
2022-10-02T05:39:57.624Z,10.14
2022-10-02T05:42:30.096Z,10.19
2022-10-02T05:45:06.053Z,10.31
2022-10-02T05:47:37.653Z,10.51
2022-10-02T05:50:15.351Z,10.53
2022-10-02T05:52:49.163Z,10.59
2022-10-02T05:55:20.657Z,10.59
2022-10-02T05:57:51.649Z,10.80
2022-10-02T06:00:31.289Z,11.04
2022-10-02T06:03:05.063Z,11.02
2022-10-02T06:05:42.698Z,11.12
2022-10-02T06:08:14.790Z,11.25
2022-10-02T06:10:46.587Z,11.32
2022-10-02T06:13:18.920Z,11.33
2022-10-02T06:15:51.454Z,11.37
2022-10-02T06:18:21.590Z,11.32
2022-10-02T06:20:53.131Z,11.03
2022-10-02T06:23:25.790Z,11.35
2022-10-02T06:25:55.562Z,11.40
2022-10-02T06:28:28.184Z,10.85
2022-10-02T06:31:00.253Z,11.32
2022-10-02T06:33:30.166Z,11.37
2022-10-02T06:36:25.368Z,11.38
2022-10-02T06:39:13.726Z,11.68
2022-10-02T06:41:46.284Z,11.76
2022-10-02T06:44:17.922Z,11.95
2022-10-02T06:46:52.429Z,11.89
2022-10-02T06:49:30.018Z,11.86
2022-10-02T06:52:06.021Z,11.91
2022-10-02T06:54:47.199Z,11.94
2022-10-02T06:57:25.406Z,11.83
2022-10-02T07:00:09.061Z,12.10
2022-10-02T07:03:06.701Z,12.15
2022-10-02T07:06:06.939Z,12.14
2022-10-02T07:08:46.079Z,12.33
2022-10-02T07:11:19.828Z,12.20
2022-10-02T07:13:58.581Z,12.19
2022-10-02T07:16:41.250Z,12.00
2022-10-02T07:19:27.101Z,12.03
2022-10-02T07:22:07.770Z,12.02
2022-10-02T07:24:59.897Z,12.23
2022-10-02T07:27:37.578Z,12.39
2022-10-02T07:30:08.441Z,12.72
2022-10-02T07:32:48.875Z,12.43
2022-10-02T07:35:29.377Z,12.82
2022-10-02T07:38:08.612Z,12.87
2022-10-02T07:40:43.372Z,13.01
2022-10-02T07:43:22.210Z,13.26
2022-10-02T07:45:54.488Z,13.08
2022-10-02T07:48:58.264Z,13.32
2022-10-02T07:51:48.518Z,13.46
2022-10-02T07:54:56.678Z,13.55
2022-10-02T07:57:32.225Z,13.93
2022-10-02T08:00:06.561Z,13.99
2022-10-02T08:02:38.542Z,14.12
2022-10-02T08:05:15.289Z,14.17
2022-10-02T08:07:43.300Z,13.95
2022-10-02T08:10:14.197Z,13.67
2022-10-02T08:12:45.765Z,13.72
2022-10-02T08:15:16.927Z,13.89
2022-10-02T08:17:47.309Z,13.93
2022-10-02T08:20:19.867Z,14.03
2022-10-02T08:22:49.781Z,14.04
2022-10-02T08:25:22.271Z,14.18
2022-10-02T08:27:54.592Z,14.20
2022-10-02T08:30:24.050Z,14.03
2022-10-02T08:32:51.969Z,14.06
2022-10-02T08:35:21.098Z,13.76
2022-10-02T08:38:05.085Z,13.77
2022-10-02T08:41:11.520Z,13.78
2022-10-02T08:44:17.611Z,13.87
2022-10-02T08:47:10.857Z,13.89
2022-10-02T08:50:30.348Z,13.88
2022-10-02T08:53:34.959Z,13.59
2022-10-02T08:56:25.861Z,13.65
2022-10-02T08:59:38.216Z,13.83
2022-10-02T09:02:33.820Z,13.71
2022-10-02T09:05:56.039Z,13.96
2022-10-02T09:08:57.284Z,14.00
2022-10-02T09:12:04.512Z,13.91
2022-10-02T09:14:48.344Z,13.74
2022-10-02T09:17:49.895Z,13.59
2022-10-02T09:20:48.513Z,13.50
2022-10-02T09:23:35.999Z,13.48
2022-10-02T09:26:27.505Z,13.66
2022-10-02T09:29:28.146Z,13.70
2022-10-02T09:32:29.968Z,13.63
2022-10-02T09:35:24.667Z,13.75
2022-10-02T09:38:14.351Z,13.56
2022-10-02T09:41:24.756Z,13.44
2022-10-02T09:44:08.924Z,13.65
2022-10-02T09:47:00.433Z,13.93
2022-10-02T09:50:10.319Z,13.68
2022-10-02T09:53:13.441Z,13.70
2022-10-02T09:56:14.215Z,13.92
2022-10-02T09:59:12.062Z,14.08
2022-10-02T10:02:06.709Z,13.83
2022-10-02T10:05:05.433Z,13.81
2022-10-02T10:07:56.253Z,13.97
2022-10-02T10:10:42.653Z,14.18
2022-10-02T10:13:32.367Z,13.91
2022-10-02T10:16:44.753Z,14.17
2022-10-02T10:20:06.200Z,14.05
2022-10-02T10:22:59.257Z,14.10
2022-10-02T10:25:59.922Z,14.04
2022-10-02T10:29:01.915Z,14.14
2022-10-02T10:32:02.980Z,14.04
2022-10-02T10:34:58.761Z,13.84
2022-10-02T10:38:04.174Z,13.97
2022-10-02T10:40:38.616Z,14.00
2022-10-02T10:43:45.254Z,14.01
2022-10-02T10:46:45.252Z,13.77
2022-10-02T10:49:35.329Z,13.74
2022-10-02T10:52:14.125Z,13.70
2022-10-02T10:54:58.370Z,13.99
2022-10-02T10:57:34.958Z,13.95
2022-10-02T11:00:13.109Z,14.05
2022-10-02T11:02:55.173Z,13.89
2022-10-02T11:05:56.305Z,14.40
2022-10-02T11:08:58.504Z,14.29
2022-10-02T11:11:33.828Z,13.92
2022-10-02T11:14:17.786Z,13.69
2022-10-02T11:17:24.981Z,13.70
2022-10-02T11:20:11.525Z,13.75
2022-10-02T11:22:53.354Z,13.78
2022-10-02T11:25:34.548Z,13.49
2022-10-02T11:28:40.822Z,13.51
2022-10-02T11:31:23.827Z,13.35
2022-10-02T11:34:13.756Z,13.32
2022-10-02T11:36:48.883Z,13.40
2022-10-02T11:39:29.667Z,13.42
2022-10-02T11:42:12.908Z,13.31
2022-10-02T11:44:55.767Z,13.38
2022-10-02T11:47:48.265Z,13.21
2022-10-02T11:50:29.194Z,13.11
2022-10-02T11:53:14.427Z,12.70
2022-10-02T11:55:55.185Z,12.94
2022-10-02T11:58:34.036Z,12.80
2022-10-02T12:01:11.417Z,13.09
2022-10-02T12:03:52.812Z,12.91
2022-10-02T12:06:30.667Z,13.00
2022-10-02T12:09:04.041Z,12.93
2022-10-02T12:11:37.415Z,12.89
2022-10-02T12:14:11.023Z,12.99
2022-10-02T12:16:53.152Z,13.01
2022-10-02T12:19:28.715Z,12.85
2022-10-02T12:22:23.103Z,12.91
2022-10-02T12:25:18.242Z,13.16
2022-10-02T12:27:53.153Z,13.14
2022-10-02T12:30:22.375Z,13.17
2022-10-02T12:33:00.334Z,13.10
2022-10-02T12:35:53.425Z,13.25
2022-10-02T12:38:28.631Z,13.31
2022-10-02T12:41:08.690Z,13.18
2022-10-02T12:44:18.549Z,13.29
2022-10-02T12:47:00.705Z,13.01
2022-10-02T12:49:40.605Z,13.31
2022-10-02T12:52:29.356Z,13.17
2022-10-02T12:55:31.609Z,12.79
2022-10-02T12:58:08.337Z,13.26
2022-10-02T13:00:51.387Z,13.08
2022-10-02T13:03:57.669Z,12.34
2022-10-02T13:07:00.687Z,12.89
2022-10-02T13:09:42.730Z,12.87
2022-10-02T13:12:41.533Z,12.85
2022-10-02T13:15:26.675Z,12.93
2022-10-02T13:18:01.486Z,12.87
2022-10-02T13:20:38.841Z,12.90
2022-10-02T13:23:17.333Z,12.82
2022-10-02T13:25:57.191Z,12.93
2022-10-02T13:28:53.108Z,13.06
2022-10-02T13:31:35.841Z,13.28
2022-10-02T13:34:14.003Z,13.19
2022-10-02T13:36:55.730Z,13.33
2022-10-02T13:39:36.156Z,13.05
2022-10-02T13:42:18.497Z,13.01
2022-10-02T13:44:53.864Z,12.80
2022-10-02T13:47:32.827Z,13.08
2022-10-02T13:50:17.377Z,12.97
2022-10-02T13:52:53.764Z,12.75
2022-10-02T13:55:24.429Z,12.71
2022-10-02T13:58:06.764Z,12.74
2022-10-02T14:01:07.665Z,12.82
2022-10-02T14:04:03.035Z,12.69
2022-10-02T14:06:34.979Z,12.77
2022-10-02T14:09:29.958Z,12.59
2022-10-02T14:12:10.100Z,12.78
2022-10-02T14:14:56.284Z,12.47
2022-10-02T14:17:34.569Z,12.42
2022-10-02T14:20:18.745Z,12.63
2022-10-02T14:23:04.792Z,12.60
2022-10-02T14:25:49.847Z,12.64
2022-10-02T14:28:35.729Z,12.46
2022-10-02T14:31:14.823Z,12.51
2022-10-02T14:33:54.789Z,12.56
2022-10-02T14:36:27.076Z,12.43
2022-10-02T14:39:04.392Z,12.64
2022-10-02T14:41:51.913Z,12.70
2022-10-02T14:44:47.081Z,12.66
2022-10-02T14:47:34.434Z,12.56
2022-10-02T14:50:29.497Z,12.39
2022-10-02T14:53:21.884Z,12.22
2022-10-02T14:56:31.232Z,12.14
2022-10-02T14:59:09.880Z,12.51
2022-10-02T15:01:44.128Z,12.49
2022-10-02T15:04:29.725Z,12.28
2022-10-02T15:07:04.905Z,12.22
2022-10-02T15:09:40.306Z,12.33
2022-10-02T15:12:13.774Z,12.33
2022-10-02T15:14:48.778Z,12.22
2022-10-02T15:17:42.072Z,12.34
2022-10-02T15:20:21.651Z,12.39
2022-10-02T15:22:56.986Z,12.51
2022-10-02T15:25:40.185Z,12.56
2022-10-02T15:28:35.226Z,12.37
2022-10-02T15:31:10.246Z,12.29
2022-10-02T15:33:40.680Z,12.44
2022-10-02T15:36:31.146Z,12.14
2022-10-02T15:39:32.757Z,12.06
2022-10-02T15:42:06.068Z,12.04
2022-10-02T15:44:54.341Z,12.16
2022-10-02T15:47:38.317Z,12.01
2022-10-02T15:50:21.233Z,12.05
2022-10-02T15:52:58.173Z,12.12
2022-10-02T15:55:31.689Z,11.93
2022-10-02T15:58:11.928Z,11.86
2022-10-02T16:01:00.894Z,11.78
2022-10-02T16:03:32.818Z,11.87
2022-10-02T16:06:03.733Z,11.83
2022-10-02T16:08:47.947Z,11.72
2022-10-02T16:11:44.317Z,11.59
2022-10-02T16:14:15.689Z,11.59
2022-10-02T16:17:11.244Z,11.52
2022-10-02T16:20:02.793Z,11.47
2022-10-02T16:22:51.877Z,11.42
2022-10-02T16:25:34.840Z,11.48
2022-10-02T16:28:14.423Z,11.34
2022-10-02T16:31:01.540Z,11.35
2022-10-02T16:33:34.164Z,11.49
2022-10-02T16:36:23.538Z,11.53
2022-10-02T16:38:53.016Z,11.52
2022-10-02T16:41:36.181Z,11.46
2022-10-02T16:44:18.964Z,11.38
2022-10-02T16:46:50.845Z,11.54
2022-10-02T16:49:25.097Z,11.36
2022-10-02T16:51:57.396Z,11.31
2022-10-02T16:54:28.598Z,11.35
2022-10-02T16:57:01.861Z,11.25
2022-10-02T16:59:32.587Z,11.28
2022-10-02T17:02:17.757Z,11.08
2022-10-02T17:05:00.766Z,11.33
2022-10-02T17:07:42.675Z,11.09
2022-10-02T17:10:21.173Z,11.20
2022-10-02T17:12:55.332Z,11.27
2022-10-02T17:15:28.580Z,11.28
2022-10-02T17:18:08.745Z,11.39
2022-10-02T17:20:42.625Z,11.47
2022-10-02T17:23:16.102Z,11.56
2022-10-02T17:25:49.852Z,11.49
2022-10-02T17:28:25.394Z,11.34
2022-10-02T17:31:16.350Z,11.39
2022-10-02T17:33:47.952Z,11.22
2022-10-02T17:36:20.134Z,11.25
2022-10-02T17:39:14.563Z,11.17
2022-10-02T17:41:53.947Z,11.14
2022-10-02T17:44:31.891Z,11.14
2022-10-02T17:47:23.860Z,11.24
2022-10-02T17:49:59.811Z,11.13
2022-10-02T17:52:50.834Z,11.02
2022-10-02T17:55:54.301Z,11.20
2022-10-02T17:58:26.982Z,11.35
2022-10-02T18:01:06.900Z,11.57
2022-10-02T18:03:44.988Z,11.37
2022-10-02T18:06:21.129Z,11.06
2022-10-02T18:09:30.501Z,11.37
2022-10-02T18:12:21.137Z,11.12
2022-10-02T18:15:01.566Z,11.28
2022-10-02T18:17:43.580Z,11.28
2022-10-02T18:20:20.862Z,11.27
2022-10-02T18:22:58.597Z,11.26
2022-10-02T18:25:44.563Z,11.31
2022-10-02T18:28:20.760Z,11.22
2022-10-02T18:30:55.166Z,11.38
2022-10-02T18:33:44.474Z,11.30
2022-10-02T18:36:37.203Z,11.20
2022-10-02T18:39:13.925Z,11.14
2022-10-02T18:41:52.342Z,11.10
2022-10-02T18:44:45.261Z,11.03
2022-10-02T18:47:24.157Z,11.18
2022-10-02T18:50:03.897Z,11.18
2022-10-02T18:52:47.218Z,11.22
2022-10-02T18:55:45.645Z,11.23
2022-10-02T18:58:24.662Z,11.40
2022-10-02T19:01:09.586Z,11.39
2022-10-02T19:03:49.556Z,11.29
2022-10-02T19:06:21.757Z,11.35
2022-10-02T19:09:04.854Z,11.27
2022-10-02T19:11:34.875Z,11.27
2022-10-02T19:14:10.705Z,11.45
2022-10-02T19:16:39.838Z,11.26
2022-10-02T19:19:11.946Z,11.13
2022-10-02T19:21:41.244Z,11.26
2022-10-02T19:24:15.354Z,11.31
2022-10-02T19:26:46.081Z,11.21
2022-10-02T19:29:25.426Z,11.29
2022-10-02T19:31:54.902Z,11.20
2022-10-02T19:34:25.667Z,11.22
2022-10-02T19:36:57.976Z,11.30
2022-10-02T19:39:30.554Z,11.31
2022-10-02T19:42:00.735Z,11.33
2022-10-02T19:44:31.220Z,11.51
2022-10-02T19:47:01.009Z,11.58
2022-10-02T19:49:31.260Z,11.31
2022-10-02T19:52:00.645Z,11.20
2022-10-02T19:54:32.002Z,11.11
2022-10-02T19:57:04.388Z,11.23
2022-10-02T19:59:41.952Z,11.52
2022-10-02T20:02:16.030Z,11.46
2022-10-02T20:04:44.109Z,11.38
2022-10-02T20:07:17.756Z,11.32
2022-10-02T20:09:49.054Z,11.29
2022-10-02T20:12:20.217Z,11.38
2022-10-02T20:14:51.874Z,11.35
2022-10-02T20:17:19.449Z,11.22
2022-10-02T20:19:50.826Z,11.16
2022-10-02T20:22:30.648Z,11.00
2022-10-02T20:25:03.640Z,10.96
2022-10-02T20:27:39.570Z,10.88
2022-10-02T20:30:13.228Z,10.78
2022-10-02T20:32:44.291Z,10.67
2022-10-02T20:35:15.778Z,10.52
2022-10-02T20:37:47.280Z,10.62
2022-10-02T20:40:17.566Z,10.68
2022-10-02T20:42:53.336Z,10.58
2022-10-02T20:45:24.481Z,10.57
2022-10-02T20:48:19.319Z,10.62
2022-10-02T20:50:51.982Z,10.65
2022-10-02T20:53:44.474Z,10.38
2022-10-02T20:56:38.497Z,10.63
2022-10-02T20:59:28.744Z,10.52
2022-10-02T21:02:08.937Z,10.24
2022-10-02T21:05:09.061Z,10.50
2022-10-02T21:07:51.356Z,10.56
2022-10-02T21:10:45.169Z,10.50
2022-10-02T21:13:37.537Z,10.52
2022-10-02T21:16:33.317Z,10.77
2022-10-02T21:19:36.258Z,10.58
2022-10-02T21:22:42.998Z,10.47
2022-10-02T21:25:36.896Z,10.62
2022-10-02T21:28:48.284Z,10.55
2022-10-02T21:31:41.050Z,10.43
2022-10-02T21:34:19.673Z,10.42
2022-10-02T21:36:52.776Z,10.40
2022-10-02T21:39:49.784Z,10.41
2022-10-02T21:42:43.005Z,10.36
2022-10-02T21:45:40.214Z,10.27
2022-10-02T21:48:46.852Z,10.46
2022-10-02T21:51:35.619Z,10.32
2022-10-02T21:54:43.722Z,10.21
2022-10-02T21:57:34.857Z,10.04
2022-10-02T22:00:14.377Z,9.97
2022-10-02T22:03:18.706Z,9.98
2022-10-02T22:06:16.400Z,9.99
2022-10-02T22:08:55.548Z,10.06
2022-10-02T22:11:32.765Z,9.67
2022-10-02T22:14:06.673Z,9.64
2022-10-02T22:16:42.205Z,9.55
2022-10-02T22:19:19.034Z,9.47
2022-10-02T22:21:57.513Z,9.38
2022-10-02T22:24:42.214Z,9.34
2022-10-02T22:27:40.281Z,9.29
2022-10-02T22:30:21.367Z,9.62
2022-10-02T22:33:13.352Z,9.44
2022-10-02T22:36:05.666Z,9.55
2022-10-02T22:38:35.030Z,9.28
2022-10-02T22:41:06.986Z,9.13
2022-10-02T22:43:42.463Z,9.06
2022-10-02T22:46:20.988Z,8.99
2022-10-02T22:48:54.532Z,8.92
2022-10-02T22:51:25.127Z,8.85
2022-10-02T22:53:57.655Z,8.70
2022-10-02T22:56:30.356Z,8.71
2022-10-02T22:59:07.792Z,8.65
2022-10-02T23:01:42.498Z,8.76
2022-10-02T23:04:22.540Z,8.65
2022-10-02T23:06:53.905Z,8.71
2022-10-02T23:09:25.510Z,8.77
2022-10-02T23:12:00.274Z,8.92
2022-10-02T23:14:35.508Z,8.78
2022-10-02T23:17:08.488Z,8.74
2022-10-02T23:19:43.172Z,8.70
2022-10-02T23:22:18.961Z,8.57
2022-10-02T23:24:50.315Z,8.73
2022-10-02T23:27:21.662Z,8.57
2022-10-02T23:29:53.812Z,8.89
2022-10-02T23:32:26.918Z,8.88
2022-10-02T23:35:03.651Z,8.96
2022-10-02T23:37:38.686Z,8.98
2022-10-02T23:40:21.189Z,8.94
2022-10-02T23:42:52.122Z,8.93
2022-10-02T23:45:22.927Z,8.97
2022-10-02T23:47:59.225Z,9.16
2022-10-02T23:50:47.835Z,9.21
2022-10-02T23:53:33.872Z,9.24
2022-10-02T23:56:23.705Z,9.21
2022-10-02T23:58:58.940Z,9.27
